Flight Track Log - Related Links

Times and Time Zones

All times are in EDT time to prevent confusion due to time zone crossing. See the JBU22 flight status page for this flight to view local times or setup timezone preferences in your user account.


Time Position Orientation Groundspeed Altitude Reporting Facility
EDT Latitude Longitude Course Direction KTS MPH feet Rate Location/Type
Sat 07:13:00 AM 26.8649 -79.7728 55° Northeast  Level FlightAware Approximate
Sat 07:13:23 AM 26.7769 -80.1258 55° Northeast 308 354 7,300  Level Miami Center
Sat 07:14:00 AM 26.9388 -79.6647 55° Northeast  Level FlightAware Approximate
Sat 07:14:23 AM 26.8081 -80.0361 69° East 313 360 10,400  Level Miami Center
Sat 07:15:00 AM 27.0091 -79.5530 53° Northeast  Level FlightAware Approximate
Sat 07:15:23 AM 26.8458 -79.9347 67° East 328 377 11,200  Level Miami Center
Sat 07:16:00 AM 27.0789 -79.4407 56° Northeast  Level FlightAware Approximate
Sat 07:16:23 AM 26.8881 -79.8192 68° East 378 435 13,000  Level Miami Center
Sat 07:17:00 AM 27.1488 -79.3286 55° Northeast  Level FlightAware Approximate
Sat 07:17:23 AM 26.9747 -79.7586 32° Northeast 391 450 14,000  Level Miami Center
Sat 07:18:23 AM 27.1069 -79.7269 12° North 411 473 16,600 2,150 Climbing Miami Center
Sat 07:19:23 AM 27.2244 -79.6994 12° North 426 490 18,300 1,400 Climbing Miami Center
Sat 07:20:23 AM 27.3483 -79.6697 12° North 448 516 19,400 1,200 Climbing Miami Center
Sat 07:21:23 AM 27.4658 -79.6422 12° North 461 531 20,700 1,650 Climbing Miami Center
Sat 07:22:23 AM 27.5936 -79.6100 13° North 466 536 22,700 1,400 Climbing Miami Center
Sat 07:23:23 AM 27.7383 -79.5783 11° North 472 543 23,500 900 Climbing Miami Center
Sat 07:24:23 AM 27.8728 -79.5439 13° North 484 557 24,500 1,600 Climbing Miami Center
Sat 07:25:23 AM 27.9922 -79.5186 11° North 484 557 26,700 2,250 Climbing Miami Center
Sat 07:26:23 AM 28.1117 -79.4883 13° North 467 537 29,000 1,400 Climbing Miami Center
Sat 07:27:23 AM 28.2353 -79.4606 11° North 448 516 29,500 950 Climbing Miami Center
Sat 07:28:23 AM 28.3569 -79.4281 13° North 448 516 30,900 750 Climbing Miami Center
Sat 07:29:23 AM 28.4764 -79.4000 12° North 448 516 31,000 50 Climbing Miami Center
Sat 07:30:23 AM 28.6106 -79.3678 12° North 443 510 31,000  Level Miami Center
Sat 07:31:23 AM 28.7342 -79.3372 12° North 448 516 31,000  Level Miami Center
Sat 07:32:23 AM 28.8578 -79.3094 11° North 448 516 31,000  Level Miami Center
Sat 07:33:23 AM 28.9772 -79.2811 12° North 448 516 31,000  Level Miami Center
Sat 07:34:23 AM 29.1028 -79.2531 11° North 448 516 31,000  Level Miami Center
Sat 07:35:23 AM 29.2222 -79.2200 14° North 448 516 31,000  Level Miami Center
Sat 07:36:23 AM 29.3481 -79.1917 11° North 458 527 31,000  Level Miami Center
Sat 07:37:23 AM 29.4736 -79.1633 11° North 452 520 31,000  Level Miami Center
Sat 07:39:52 AM 29.7733 -79.0836 13° North 453 521 31,000  Level Jacksonville Center
Sat 07:40:52 AM 29.8850 -79.0456 16° North 442 509 31,000  Level Jacksonville Center
Sat 07:41:52 AM 30.0114 -79.0189 10° North 457 526 31,000  Level Jacksonville Center
Sat 07:42:52 AM 30.1378 -78.9875 12° North 464 534 31,000  Level Jacksonville Center
Sat 07:43:52 AM 30.2683 -78.9581 11° North 458 527 31,000  Level Jacksonville Center
Sat 07:44:52 AM 30.3967 -78.9239 13° North 469 540 31,000  Level Jacksonville Center
Sat 07:45:52 AM 30.5169 -78.8925 13° North 464 534 31,000  Level Jacksonville Center
Sat 07:46:52 AM 30.6453 -78.8628 11° North 464 534 31,000  Level Jacksonville Center
Sat 07:47:52 AM 30.7717 -78.8286 13° North 466 536 31,000  Level Jacksonville Center
Sat 07:48:52 AM 30.8997 -78.7917 14° North 460 529 31,000  Level Jacksonville Center
Sat 07:49:52 AM 31.0344 -78.7589 12° North 474 545 31,000  Level Jacksonville Center
Sat 07:50:52 AM 31.1608 -78.7292 11° North 474 545 31,000  Level Jacksonville Center
Sat 07:51:52 AM 31.2892 -78.6967 12° North 468 539 31,000  Level Jacksonville Center
Sat 07:52:52 AM 31.4175 -78.6642 12° North 468 539 31,000  Level Jacksonville Center
Sat 07:53:52 AM 31.5458 -78.6292 13° North 468 539 31,000  Level Jacksonville Center
Sat 07:54:52 AM 31.6783 -78.5939 13° North 468 539 31,000  Level Jacksonville Center
Sat 07:55:52 AM 31.8044 -78.5611 12° North 468 539 31,000  Level Jacksonville Center
Sat 07:56:52 AM 31.9367 -78.5256 13° North 468 539 31,000  Level Jacksonville Center
Sat 07:57:52 AM 32.0608 -78.4900 14° North 468 539 31,000  Level Jacksonville Center
Sat 07:58:52 AM 32.1908 -78.4519 14° North 468 539 31,000  Level Jacksonville Center
Sat 07:59:52 AM 32.3192 -78.4186 12° North 468 539 31,000  Level Jacksonville Center
Sat 08:00:52 AM 32.4494 -78.3853 12° North 468 539 31,000  Level Jacksonville Center
Sat 08:01:52 AM 32.5758 -78.3542 12° North 468 539 31,000  Level Jacksonville Center
Sat 08:02:52 AM 32.6978 -78.3211 13° North 463 533 31,000  Level Jacksonville Center
Sat 08:03:52 AM 32.8219 -78.2925 11° North 463 533 31,000 -36 Level Jacksonville Center
Sat 08:05:39 AM 33.0414 -78.2317 13° North 446 513 30,900  Descending Washington Center
Sat 08:06:40 AM 33.1672 -78.1986 12° North 446 513 31,000 50 Climbing Washington Center
Sat 08:07:40 AM 33.2911 -78.1650 13° North 456 525 31,000  Level Washington Center
Sat 08:08:41 AM 33.4189 -78.1292 13° North 456 525 31,000  Level Washington Center
Sat 08:09:41 AM 33.5447 -78.0956 13° North 456 525 31,000 -51 Level Washington Center
Sat 08:10:39 AM 33.6728 -78.0619 12° North 456 525 30,900  Descending Washington Center
Sat 08:11:40 AM 33.7950 -77.9983 23° Northeast 462 532 31,000 49 Climbing Washington Center
Sat 08:12:41 AM 33.8919 -77.9483 23° Northeast 462 532 31,000  Level Washington Center
Sat 08:13:39 AM 34.0439 -77.8700 23° Northeast 481 554 31,000  Level Washington Center
Sat 08:14:39 AM 34.1681 -77.8008 25° Northeast 481 554 31,000  Level Washington Center
Sat 08:15:39 AM 34.2903 -77.7411 22° Northeast 481 554 31,000 -50 Level Washington Center
Sat 08:16:40 AM 34.4061 -77.6839 22° Northeast 487 560 30,900 -50 Descending Washington Center
Sat 08:17:40 AM 34.5303 -77.6189 23° Northeast 482 555 30,900 50 Level Washington Center
Sat 08:18:39 AM 34.6544 -77.5539 23° Northeast 482 555 31,000 50 Climbing Washington Center
Sat 08:19:39 AM 34.7786 -77.4886 23° Northeast 482 555 31,000  Level Washington Center
Sat 08:20:40 AM 34.9006 -77.4206 25° Northeast 482 555 31,000  Level Washington Center
Sat 08:21:41 AM 35.0269 -77.3522 24° Northeast 482 555 31,000  Level Washington Center
Sat 08:22:41 AM 35.1550 -77.2892 22° Northeast 482 555 31,000  Level Washington Center
Sat 08:23:39 AM 35.2769 -77.2203 25° Northeast 482 555 31,000  Level Washington Center
Sat 08:24:39 AM 35.4031 -77.1542 23° Northeast 482 555 31,000  Level Washington Center
Sat 08:25:41 AM 35.5269 -77.0878 24° Northeast 482 555 31,000  Level Washington Center
Sat 08:26:38 AM 35.6508 -77.0208 24° Northeast 482 555 31,000  Level Washington Center
Sat 08:27:39 AM 35.7750 -76.9514 24° Northeast 482 555 31,000  Level Washington Center
Sat 08:28:41 AM 35.9028 -76.8869 22° Northeast 482 555 31,000 -50 Level Washington Center
Sat 08:29:39 AM 36.0308 -76.8325 19° North 482 555 30,900  Descending Washington Center
Sat 08:30:40 AM 36.1533 -76.8706 346° North 458 527 31,000 50 Climbing Washington Center
Sat 08:31:39 AM 36.2653 -76.9392 334° Northwest 431 496 31,000 -50 Level Washington Center
Sat 08:32:40 AM 36.3947 -76.9261 North 448 516 30,900  Descending Washington Center
Sat 08:33:40 AM 36.5294 -76.8300 30° Northeast 448 516 31,000  Climbing Washington Center
Sat 08:34:40 AM 36.6386 -76.7517 30° Northeast 475 547 30,900  Descending Washington Center
Sat 08:35:40 AM 36.7731 -76.6525 31° Northeast 493 567 31,000 50 Climbing Washington Center
Sat 08:36:41 AM 36.8928 -76.5658 30° Northeast 505 581 31,000  Level Washington Center
Sat 08:37:41 AM 37.0039 -76.4867 30° Northeast 508 585 31,000  Level Washington Center
Sat 08:38:39 AM 37.1275 -76.3969 30° Northeast 508 585 31,000  Level Washington Center
Sat 08:39:40 AM 37.2492 -76.3094 30° Northeast 508 585 31,000  Level Washington Center
Sat 08:40:40 AM 37.3706 -76.2242 29° Northeast 508 585 31,000  Level Washington Center
Sat 08:41:40 AM 37.5086 -76.1311 28° Northeast 508 585 31,000  Level Washington Center
Sat 08:42:41 AM 37.6300 -76.0428 30° Northeast 503 579 31,000  Level Washington Center
Sat 08:43:39 AM 37.7492 -75.9542 30° Northeast 503 579 31,000  Level Washington Center
Sat 08:44:40 AM 37.8558 -75.8706 32° Northeast 503 579 31,000  Level Washington Center
Sat 08:45:41 AM 37.9936 -75.7789 28° Northeast 503 579 31,000  Level Washington Center
Sat 08:46:39 AM 38.1000 -75.6894 33° Northeast 503 579 31,000  Level Washington Center
Sat 08:47:40 AM 38.2378 -75.5892 30° Northeast 512 589 31,000  Level Washington Center
Sat 08:48:40 AM 38.3503 -75.5122 28° Northeast 506 582 31,000  Level Washington Center
Sat 08:49:41 AM 38.4836 -75.4564 18° North 492 566 31,000  Level Washington Center
Sat 08:50:39 AM 38.6169 -75.3978 19° North 492 566 31,000  Level Washington Center
Sat 08:51:41 AM 38.7503 -75.3414 18° North 497 572 31,000  Level Washington Center
Sat 08:52:38 AM 38.8753 -75.2422 32° Northeast 508 585 31,000  Level Washington Center
Sat 08:53:40 AM 38.9958 -75.1403 33° Northeast 513 590 31,000 -49 Level Washington Center
Sat 08:54:40 AM 39.1206 -75.0431 31° Northeast 513 590 30,900  Descending Washington Center
Sat 08:55:40 AM 39.2428 -74.9431 32° Northeast 518 596 31,000 50 Climbing Washington Center
Sat 08:56:41 AM 39.3672 -74.8400 33° Northeast 518 596 31,000  Level Washington Center
Sat 08:57:38 AM 39.4875 -74.7392 33° Northeast 518 596 31,000  Level Washington Center
Sat 08:58:40 AM 39.6117 -74.6381 32° Northeast 518 596 31,000  Level Washington Center
Sat 08:59:41 AM 39.7339 -74.5339 33° Northeast 518 596 31,000  Level Washington Center
Sat 09:01:06 AM 39.9211 -74.3786 32° Northeast 526 605 31,000  Level New York Center
Sat 09:02:08 AM 40.0428 -74.2750 33° Northeast 525 604 31,000  Level New York Center
Sat 09:03:09 AM 40.1594 -74.1572 38° Northeast 530 610 31,000  Level New York Center
Sat 09:04:11 AM 40.2753 -74.0400 38° Northeast 528 608 31,000  Level New York Center
Sat 09:05:12 AM 40.3914 -73.9219 38° Northeast 528 608 31,000  Level New York Center
Sat 09:06:14 AM 40.5225 -73.7864 38° Northeast 530 610 31,000 -98 Level New York Center
Sat 09:07:15 AM 40.6408 -73.6689 37° Northeast 531 611 30,800 -1,046 Descending New York Center
Sat 09:08:03 AM 40.7356 -73.5717 38° Northeast 532 612 29,100 -2,056 Descending Boston Center
Sat 09:09:03 AM 40.8514 -73.4514 38° Northeast 531 611 27,100 -1,024 Descending Boston Center
Sat 09:10:06 AM 40.9575 -73.3006 47° Northeast 550 633 27,000 -347 Descending Boston Center
Sat 09:11:04 AM 41.0606 -73.1433 49° Northeast 562 647 26,400 -992 Descending Boston Center
Sat 09:12:07 AM 41.1628 -72.9908 48° Northeast 561 646 25,000 -1,659 Descending Boston Center
Sat 09:13:07 AM 41.2397 -72.8250 58° Northeast 541 623 23,000 -992 Descending Boston Center
Sat 09:14:08 AM 41.3072 -72.6350 65° Northeast 539 620 23,000  Level Boston Center
Sat 09:15:08 AM 41.3722 -72.4528 65° Northeast 540 621 23,000  Level Boston Center
Sat 09:16:11 AM 41.4350 -72.2714 65° Northeast 540 621 23,000  Level Boston Center
Sat 09:17:09 AM 41.4983 -72.0883 65° Northeast 540 621 23,000 -706 Level Boston Center
Sat 09:18:10 AM 41.5672 -71.8903 65° Northeast 538 619 21,600 -1,902 Descending Boston Center
Sat 09:19:12 AM 41.6261 -71.7172 65° Northeast 519 597 19,100 -2,565 Descending Boston Center
Sat 09:20:14 AM 41.6867 -71.5419 65° Northeast 498 573 16,300 -2,600 Descending Boston Center
Sat 09:21:12 AM 41.7419 -71.3869 64° Northeast 470 541 13,900 -2,450 Descending Boston Center
Sat 09:22:14 AM 41.8042 -71.2447 60° Northeast 448 516 11,400 -1,415 Descending Boston Center
Sat 09:23:15 AM 41.8617 -71.1097 60° Northeast 382 440 11,000 -1,190 Descending Boston Center
Sat 09:24:15 AM 41.9106 -71.0011 59° Northeast 343 395 9,000 -1,885 Descending Boston Center
Sat 09:25:51 AM 42.0167 -70.8667 43° Northeast 290 334 6,100 -1,769 Descending KA90
Sat 09:26:51 AM 42.0667 -70.8000 45° Northeast 266 306 4,400 -1,050 Descending KA90
Sat 09:27:51 AM 42.1167 -70.7500 37° Northeast 251 289 4,000 -190 Descending KA90
Sat 09:28:57 AM 42.1667 -70.7500 360° North 177 204 4,000  Level KA90
Sat 09:29:57 AM 42.2167 -70.8000 323° Northwest 186 214 4,000 -400 Level KA90
Sat 09:30:57 AM 42.2500 -70.8500 312° West 174 200 3,200 -842 Descending KA90
Sat 09:31:51 AM 42.2667 -70.8833 304° West 136 157 2,400 -783 Descending KA90
Sat 09:32:52 AM 42.3000 -70.9167 324° Northwest 127 146 1,700 -700 Descending KA90
Sat 09:33:51 AM 42.3167 -70.9500 304° West 125 144 1,000 -684 Descending KA90
Sat 09:34:46 AM 42.3500 -70.9667 340° North 126 145 400 -655 Descending KA90

Login

Don't have an account? Register now (free) for customized features, flight alerts, and more!